sensor_id;sensor_type;location;lat;lon;timestamp;temperature;humidity
23769;DHT22;12064;50.890;5.424;2023-03-01T00:01:11;22.90;62.70
23769;DHT22;12064;50.890;5.424;2023-03-01T00:10:06;22.90;62.40
23769;DHT22;12064;50.890;5.424;2023-03-01T00:18:59;22.40;63.30
23769;DHT22;12064;50.890;5.424;2023-03-01T00:27:50;21.40;66.20
23769;DHT22;12064;50.890;5.424;2023-03-01T00:36:40;21.00;68.20
23769;DHT22;12064;50.890;5.424;2023-03-01T00:45:34;21.00;67.70
23769;DHT22;12064;50.890;5.424;2023-03-01T00:54:24;21.20;67.10
23769;DHT22;12064;50.890;5.424;2023-03-01T01:03:16;21.30;66.80
23769;DHT22;12064;50.890;5.424;2023-03-01T01:12:07;22.00;64.30
23769;DHT22;12064;50.890;5.424;2023-03-01T01:21:02;21.40;65.40
23769;DHT22;12064;50.890;5.424;2023-03-01T01:29:53;20.80;67.50
23769;DHT22;12064;50.890;5.424;2023-03-01T01:38:47;20.70;68.00
23769;DHT22;12064;50.890;5.424;2023-03-01T01:47:41;20.50;68.50
23769;DHT22;12064;50.890;5.424;2023-03-01T01:56:32;20.50;68.40
23769;DHT22;12064;50.890;5.424;2023-03-01T02:05:50;20.50;68.00
23769;DHT22;12064;50.890;5.424;2023-03-01T02:14:41;20.80;67.40
23769;DHT22;12064;50.890;5.424;2023-03-01T02:23:33;20.70;67.30
23769;DHT22;12064;50.890;5.424;2023-03-01T02:32:24;20.50;68.10
23769;DHT22;12064;50.890;5.424;2023-03-01T02:41:19;20.40;68.30
23769;DHT22;12064;50.890;5.424;2023-03-01T02:59:13;20.40;68.40
23769;DHT22;12064;50.890;5.424;2023-03-01T03:08:06;20.60;67.50
23769;DHT22;12064;50.890;5.424;2023-03-01T03:17:01;20.60;67.20
23769;DHT22;12064;50.890;5.424;2023-03-01T03:25:53;20.40;67.70
23769;DHT22;12064;50.890;5.424;2023-03-01T03:34:44;20.30;68.10
23769;DHT22;12064;50.890;5.424;2023-03-01T03:43:37;20.40;67.90
23769;DHT22;12064;50.890;5.424;2023-03-01T03:52:31;20.40;67.80
23769;DHT22;12064;50.890;5.424;2023-03-01T04:01:21;20.20;68.00
23769;DHT22;12064;50.890;5.424;2023-03-01T04:10:17;20.40;67.50
23769;DHT22;12064;50.890;5.424;2023-03-01T04:19:11;20.40;67.60
23769;DHT22;12064;50.890;5.424;2023-03-01T04:28:01;20.30;68.00
23769;DHT22;12064;50.890;5.424;2023-03-01T04:36:52;20.10;68.20
23769;DHT22;12064;50.890;5.424;2023-03-01T04:45:43;20.10;68.20
23769;DHT22;12064;50.890;5.424;2023-03-01T04:54:35;20.20;68.20
23769;DHT22;12064;50.890;5.424;2023-03-01T05:03:26;20.60;66.90
23769;DHT22;12064;50.890;5.424;2023-03-01T05:12:20;21.10;66.00
23769;DHT22;12064;50.890;5.424;2023-03-01T05:21:14;21.20;65.40
23769;DHT22;12064;50.890;5.424;2023-03-01T05:30:06;21.20;65.60
23769;DHT22;12064;50.890;5.424;2023-03-01T05:39:07;21.20;65.80
23769;DHT22;12064;50.890;5.424;2023-03-01T05:47:58;21.20;65.80
23769;DHT22;12064;50.890;5.424;2023-03-01T05:56:52;21.10;66.00
23769;DHT22;12064;50.890;5.424;2023-03-01T06:05:43;20.90;66.40
23769;DHT22;12064;50.890;5.424;2023-03-01T06:14:36;20.70;66.80
23769;DHT22;12064;50.890;5.424;2023-03-01T06:23:27;20.60;66.90
23769;DHT22;12064;50.890;5.424;2023-03-01T06:32:17;20.40;67.50
23769;DHT22;12064;50.890;5.424;2023-03-01T06:50:43;20.30;67.80
23769;DHT22;12064;50.890;5.424;2023-03-01T06:59:35;20.40;67.10
23769;DHT22;12064;50.890;5.424;2023-03-01T07:08:29;20.30;67.20
23769;DHT22;12064;50.890;5.424;2023-03-01T07:17:20;20.30;67.40
23769;DHT22;12064;50.890;5.424;2023-03-01T07:26:10;20.20;67.70
23769;DHT22;12064;50.890;5.424;2023-03-01T07:35:01;20.10;67.70
23769;DHT22;12064;50.890;5.424;2023-03-01T07:43:53;20.30;67.00
23769;DHT22;12064;50.890;5.424;2023-03-01T07:52:48;20.40;66.70
23769;DHT22;12064;50.890;5.424;2023-03-01T08:01:39;20.30;67.00
23769;DHT22;12064;50.890;5.424;2023-03-01T08:10:30;20.20;67.10
23769;DHT22;12064;50.890;5.424;2023-03-01T08:19:21;20.10;67.40
23769;DHT22;12064;50.890;5.424;2023-03-01T08:28:11;20.10;67.50
23769;DHT22;12064;50.890;5.424;2023-03-01T08:37:02;20.00;67.50
23769;DHT22;12064;50.890;5.424;2023-03-01T08:45:55;20.30;67.70
23769;DHT22;12064;50.890;5.424;2023-03-01T08:54:48;20.30;66.70
23769;DHT22;12064;50.890;5.424;2023-03-01T09:03:39;20.20;66.80
23769;DHT22;12064;50.890;5.424;2023-03-01T09:12:30;20.20;66.90
23769;DHT22;12064;50.890;5.424;2023-03-01T09:21:23;20.20;66.90
23769;DHT22;12064;50.890;5.424;2023-03-01T09:30:20;20.20;66.50
23769;DHT22;12064;50.890;5.424;2023-03-01T09:39:11;20.30;66.30
23769;DHT22;12064;50.890;5.424;2023-03-01T09:48:04;20.30;66.40
23769;DHT22;12064;50.890;5.424;2023-03-01T10:06:33;20.10;66.80
23769;DHT22;12064;50.890;5.424;2023-03-01T10:15:39;20.10;66.90
23769;DHT22;12064;50.890;5.424;2023-03-01T10:24:35;20.10;66.70
23769;DHT22;12064;50.890;5.424;2023-03-01T10:33:35;20.10;66.40
23769;DHT22;12064;50.890;5.424;2023-03-01T10:42:32;20.20;66.00
23769;DHT22;12064;50.890;5.424;2023-03-01T10:51:23;20.20;66.20
23769;DHT22;12064;50.890;5.424;2023-03-01T11:00:25;20.10;66.50
23769;DHT22;12064;50.890;5.424;2023-03-01T11:09:21;20.10;66.60
23769;DHT22;12064;50.890;5.424;2023-03-01T11:18:21;20.10;66.30
23769;DHT22;12064;50.890;5.424;2023-03-01T11:27:25;20.00;66.60
23769;DHT22;12064;50.890;5.424;2023-03-01T11:46:41;20.30;65.30
23769;DHT22;12064;50.890;5.424;2023-03-01T12:32:18;20.00;66.10
23769;DHT22;12064;50.890;5.424;2023-03-01T12:41:35;20.00;65.80
23769;DHT22;12064;50.890;5.424;2023-03-01T12:50:41;20.20;65.10
23769;DHT22;12064;50.890;5.424;2023-03-01T12:59:42;20.60;64.00
23769;DHT22;12064;50.890;5.424;2023-03-01T13:08:56;20.40;64.20
23769;DHT22;12064;50.890;5.424;2023-03-01T13:17:57;20.00;65.50
23769;DHT22;12064;50.890;5.424;2023-03-01T13:35:58;19.90;65.90
23769;DHT22;12064;50.890;5.424;2023-03-01T13:44:49;20.00;65.70
23769;DHT22;12064;50.890;5.424;2023-03-01T13:53:45;20.00;65.40
23769;DHT22;12064;50.890;5.424;2023-03-01T14:02:37;20.10;65.10
23769;DHT22;12064;50.890;5.424;2023-03-01T14:20:43;20.80;62.50
23769;DHT22;12064;50.890;5.424;2023-03-01T14:29:42;20.70;62.60
23769;DHT22;12064;50.890;5.424;2023-03-01T14:38:42;20.40;63.70
23769;DHT22;12064;50.890;5.424;2023-03-01T14:47:36;20.10;64.80
23769;DHT22;12064;50.890;5.424;2023-03-01T14:56:43;19.90;65.00
23769;DHT22;12064;50.890;5.424;2023-03-01T15:05:35;19.90;65.10
23769;DHT22;12064;50.890;5.424;2023-03-01T15:14:41;20.10;64.70
23769;DHT22;12064;50.890;5.424;2023-03-01T15:23:32;20.60;64.10
23769;DHT22;12064;50.890;5.424;2023-03-01T15:32:31;20.90;61.90
23769;DHT22;12064;50.890;5.424;2023-03-01T15:41:28;21.00;61.40
23769;DHT22;12064;50.890;5.424;2023-03-01T15:50:41;21.00;61.50
23769;DHT22;12064;50.890;5.424;2023-03-01T15:59:33;21.40;60.40
23769;DHT22;12064;50.890;5.424;2023-03-01T16:08:24;20.90;61.10
23769;DHT22;12064;50.890;5.424;2023-03-01T16:17:15;20.30;63.40
23769;DHT22;12064;50.890;5.424;2023-03-01T16:26:09;20.10;64.20
23769;DHT22;12064;50.890;5.424;2023-03-01T16:35:01;20.20;64.00
23769;DHT22;12064;50.890;5.424;2023-03-01T16:43:52;20.50;62.90
23769;DHT22;12064;50.890;5.424;2023-03-01T16:52:42;21.10;61.10
23769;DHT22;12064;50.890;5.424;2023-03-01T17:01:33;21.20;60.60
23769;DHT22;12064;50.890;5.424;2023-03-01T17:10:29;21.30;60.10
23769;DHT22;12064;50.890;5.424;2023-03-01T17:19:20;21.30;60.30
23769;DHT22;12064;50.890;5.424;2023-03-01T17:28:23;21.40;60.00
23769;DHT22;12064;50.890;5.424;2023-03-01T17:37:15;20.40;63.00
23769;DHT22;12064;50.890;5.424;2023-03-01T17:46:05;20.10;64.10
23769;DHT22;12064;50.890;5.424;2023-03-01T17:54:56;20.20;63.90
23769;DHT22;12064;50.890;5.424;2023-03-01T18:03:49;20.50;63.30
23769;DHT22;12064;50.890;5.424;2023-03-01T18:12:40;21.10;61.10
23769;DHT22;12064;50.890;5.424;2023-03-01T18:21:32;21.40;60.40
23769;DHT22;12064;50.890;5.424;2023-03-01T18:30:22;21.40;60.10
23769;DHT22;12064;50.890;5.424;2023-03-01T18:39:14;21.20;60.50
23769;DHT22;12064;50.890;5.424;2023-03-01T18:48:07;20.40;62.90
23769;DHT22;12064;50.890;5.424;2023-03-01T18:56:57;20.30;63.80
23769;DHT22;12064;50.890;5.424;2023-03-01T19:05:48;20.40;63.50
23769;DHT22;12064;50.890;5.424;2023-03-01T19:14:45;20.60;63.00
23769;DHT22;12064;50.890;5.424;2023-03-01T19:23:40;21.00;61.50
23769;DHT22;12064;50.890;5.424;2023-03-01T19:32:32;21.40;60.10
23769;DHT22;12064;50.890;5.424;2023-03-01T19:41:26;21.40;60.10
23769;DHT22;12064;50.890;5.424;2023-03-01T19:50:17;21.40;60.00
23769;DHT22;12064;50.890;5.424;2023-03-01T19:59:07;20.50;62.50
23769;DHT22;12064;50.890;5.424;2023-03-01T20:08:01;20.30;63.40
23769;DHT22;12064;50.890;5.424;2023-03-01T20:17:00;20.40;63.30
23769;DHT22;12064;50.890;5.424;2023-03-01T20:25:51;20.30;63.40
23769;DHT22;12064;50.890;5.424;2023-03-01T20:34:41;20.80;62.20
23769;DHT22;12064;50.890;5.424;2023-03-01T20:43:35;21.80;60.90
23769;DHT22;12064;50.890;5.424;2023-03-01T20:52:30;21.90;61.30
23769;DHT22;12064;50.890;5.424;2023-03-01T21:01:21;22.20;60.50
23769;DHT22;12064;50.890;5.424;2023-03-01T21:10:14;22.60;60.40
23769;DHT22;12064;50.890;5.424;2023-03-01T21:19:04;22.90;59.90
23769;DHT22;12064;50.890;5.424;2023-03-01T21:27:55;22.80;60.00
23769;DHT22;12064;50.890;5.424;2023-03-01T21:36:48;22.90;60.20
23769;DHT22;12064;50.890;5.424;2023-03-01T21:45:39;23.10;60.20
23769;DHT22;12064;50.890;5.424;2023-03-01T21:54:31;23.10;59.80
23769;DHT22;12064;50.890;5.424;2023-03-01T22:03:23;23.10;59.80
23769;DHT22;12064;50.890;5.424;2023-03-01T22:12:13;22.70;60.70
23769;DHT22;12064;50.890;5.424;2023-03-01T22:21:05;22.20;61.20
23769;DHT22;12064;50.890;5.424;2023-03-01T22:29:58;21.70;62.80
23769;DHT22;12064;50.890;5.424;2023-03-01T22:38:49;21.60;62.90
23769;DHT22;12064;50.890;5.424;2023-03-01T22:47:47;21.70;62.40
23769;DHT22;12064;50.890;5.424;2023-03-01T22:56:38;22.00;61.10
23769;DHT22;12064;50.890;5.424;2023-03-01T23:05:29;21.30;62.50
23769;DHT22;12064;50.890;5.424;2023-03-01T23:14:21;20.80;64.40
23769;DHT22;12064;50.890;5.424;2023-03-01T23:23:14;20.50;65.50
23769;DHT22;12064;50.890;5.424;2023-03-01T23:32:08;20.50;65.20
23769;DHT22;12064;50.890;5.424;2023-03-01T23:40:59;20.90;64.00
23769;DHT22;12064;50.890;5.424;2023-03-01T23:49:50;21.20;62.50
23769;DHT22;12064;50.890;5.424;2023-03-01T23:58:41;21.60;61.60
